Time;durP1;ratioP1;P1;durP2;ratioP2;P2;SDS_P1;SDS_P2;PMS_P1;PMS_P2;Temp;Humidity;BMP_temperature;BMP_pressure;BME280_temperature;BME280_humidity;BME280_pressure;Samples;Min_cycle;Max_cycle;Signal;HPM_P1;HPM_P2
2023/04/17 00:01:36;;;;;;;0.70;0.70;;;;;;;;;;5086633;28;20199;-83
2023/04/17 00:04:02;;;;;;;0.60;0.60;;;;;;;;;;5086080;28;20258;-83
2023/04/17 00:06:28;;;;;;;0.80;0.80;;;;;;;;;;5086259;28;20224;-83
2023/04/17 00:08:54;;;;;;;0.80;0.80;;;;;;;;;;5085754;28;20228;-84
2023/04/17 00:11:21;;;;;;;0.70;0.70;;;;;;;;;;5085781;28;20306;-83
2023/04/17 00:13:47;;;;;;;0.70;0.70;;;;;;;;;;5085307;28;20194;-83
2023/04/17 00:16:13;;;;;;;0.70;0.70;;;;;;;;;;5086410;28;20677;-84
2023/04/17 00:18:39;;;;;;;0.70;0.70;;;;;;;;;;5086902;28;20220;-83
2023/04/17 00:21:05;;;;;;;0.70;0.70;;;;;;;;;;5080894;28;20181;-83
2023/04/17 00:23:31;;;;;;;0.60;0.60;;;;;;;;;;5080237;28;20536;-82
2023/04/17 00:25:57;;;;;;;0.70;0.70;;;;;;;;;;5081295;28;20191;-83
2023/04/17 00:28:23;;;;;;;0.70;0.70;;;;;;;;;;5081164;28;20171;-83
2023/04/17 00:30:49;;;;;;;0.60;0.60;;;;;;;;;;5080539;28;20246;-84
2023/04/17 00:33:15;;;;;;;0.70;0.70;;;;;;;;;;5080239;28;20197;-83
2023/04/17 00:35:41;;;;;;;0.50;0.50;;;;;;;;;;5082067;28;20699;-83
2023/04/17 00:38:08;;;;;;;0.60;0.60;;;;;;;;;;5082835;28;20181;-84
2023/04/17 00:40:34;;;;;;;0.70;0.70;;;;;;;;;;5082334;28;20174;-83
2023/04/17 00:43:00;;;;;;;0.70;0.70;;;;;;;;;;5082434;28;20186;-83
2023/04/17 00:45:26;;;;;;;0.70;0.70;;;;;;;;;;5082681;28;20204;-84
2023/04/17 00:47:53;;;;;;;0.70;0.70;;;;;;;;;;5083123;28;20182;-82
2023/04/17 00:50:19;;;;;;;0.73;0.73;;;;;;;;;;5082506;28;20665;-82
2023/04/17 00:52:45;;;;;;;0.67;0.67;;;;;;;;;;5082488;28;20174;-83
2023/04/17 00:55:12;;;;;;;0.70;0.70;;;;;;;;;;5083075;28;20218;-84
2023/04/17 00:57:38;;;;;;;0.60;0.60;;;;;;;;;;5083024;28;20182;-83
2023/04/17 01:00:04;;;;;;;0.60;0.60;;;;;;;;;;5082679;28;20720;-82
2023/04/17 01:02:30;;;;;;;0.60;0.60;;;;;;;;;;5081613;28;20208;-82
2023/04/17 01:04:56;;;;;;;0.70;0.70;;;;;;;;;;5082061;28;20195;-83
2023/04/17 01:07:22;;;;;;;0.63;0.63;;;;;;;;;;5081535;28;20178;-84
2023/04/17 01:09:48;;;;;;;0.70;0.70;;;;;;;;;;5080812;28;20254;-84
2023/04/17 01:12:15;;;;;;;0.70;0.70;;;;;;;;;;5080773;28;20174;-83
2023/04/17 01:14:41;;;;;;;0.60;0.60;;;;;;;;;;5079624;28;20197;-84
2023/04/17 01:17:09;;;;;;;0.70;0.70;;;;;;;;;;5080466;28;20175;-83
2023/04/17 01:19:35;;;;;;;0.60;0.60;;;;;;;;;;5082261;28;20233;-83
2023/04/17 01:22:01;;;;;;;0.60;0.60;;;;;;;;;;5083389;28;20220;-83
2023/04/17 01:24:27;;;;;;;0.70;0.70;;;;;;;;;;5084070;28;20202;-84
2023/04/17 01:26:52;;;;;;;0.70;0.70;;;;;;;;;;5084326;28;20174;-83
2023/04/17 01:29:19;;;;;;;0.60;0.60;;;;;;;;;;5084423;28;20175;-84
2023/04/17 01:31:45;;;;;;;0.70;0.70;;;;;;;;;;5083718;28;20304;-83
2023/04/17 01:34:10;;;;;;;0.70;0.70;;;;;;;;;;5084556;28;20238;-83
2023/04/17 01:36:36;;;;;;;0.70;0.70;;;;;;;;;;5084291;28;20174;-83
2023/04/17 01:39:03;;;;;;;0.80;0.80;;;;;;;;;;5083513;28;20208;-84
2023/04/17 01:41:29;;;;;;;0.70;0.70;;;;;;;;;;5084441;28;20622;-84
2023/04/17 01:43:55;;;;;;;0.70;0.70;;;;;;;;;;5083381;28;20210;-83
2023/04/17 01:46:21;;;;;;;0.70;0.70;;;;;;;;;;5084171;28;20175;-84
2023/04/17 01:48:47;;;;;;;0.80;0.80;;;;;;;;;;5084115;28;20225;-82
2023/04/17 01:51:12;;;;;;;0.70;0.70;;;;;;;;;;5082624;28;20210;-82
2023/04/17 01:53:39;;;;;;;0.70;0.70;;;;;;;;;;5082152;28;20206;-83
2023/04/17 01:56:05;;;;;;;0.60;0.60;;;;;;;;;;5083929;28;20190;-82
2023/04/17 01:58:31;;;;;;;0.70;0.70;;;;;;;;;;5083296;28;20190;-83
2023/04/17 02:00:57;;;;;;;0.57;0.57;;;;;;;;;;5083244;28;20262;-83
2023/04/17 02:03:23;;;;;;;0.60;0.60;;;;;;;;;;5083205;28;20202;-81
2023/04/17 02:05:49;;;;;;;0.70;0.70;;;;;;;;;;5083242;28;20175;-82
2023/04/17 02:08:15;;;;;;;0.70;0.70;;;;;;;;;;5083374;28;20274;-82
2023/04/17 02:10:45;;;;;;;0.73;0.73;;;;;;;;;;5083383;28;20217;-82
2023/04/17 02:13:11;;;;;;;0.60;0.60;;;;;;;;;;5082241;28;20191;-83
2023/04/17 02:15:37;;;;;;;0.70;0.70;;;;;;;;;;5083430;28;20257;-82
2023/04/17 02:18:05;;;;;;;0.80;0.80;;;;;;;;;;5084434;28;20175;-82
2023/04/17 02:23:04;;;;;;;0.60;0.60;;;;;;;;;;5072458;28;20322;-84
2023/04/17 02:25:30;;;;;;;0.80;0.80;;;;;;;;;;5069630;28;20187;-84
2023/04/17 02:27:57;;;;;;;0.70;0.70;;;;;;;;;;5068798;28;20205;-85
2023/04/17 02:30:26;;;;;;;0.70;0.70;;;;;;;;;;5068166;28;20309;-86
2023/04/17 02:32:53;;;;;;;0.70;0.70;;;;;;;;;;5064800;28;20248;-86
2023/04/17 02:35:20;;;;;;;0.70;0.70;;;;;;;;;;5064876;28;20203;-84
2023/04/17 02:37:46;;;;;;;0.80;0.80;;;;;;;;;;5063019;28;20242;-83
2023/04/17 02:40:12;;;;;;;0.80;0.80;;;;;;;;;;5063396;28;20191;-84
2023/04/17 02:42:38;;;;;;;0.80;0.80;;;;;;;;;;5062984;28;20184;-85
2023/04/17 02:45:05;;;;;;;0.60;0.60;;;;;;;;;;5064274;28;20202;-83
2023/04/17 02:47:31;;;;;;;0.70;0.70;;;;;;;;;;5065687;28;20186;-84
2023/04/17 02:49:59;;;;;;;0.60;0.60;;;;;;;;;;5064787;28;20206;-84
2023/04/17 02:52:25;;;;;;;0.70;0.70;;;;;;;;;;5062194;28;20206;-84
2023/04/17 02:54:51;;;;;;;0.80;0.80;;;;;;;;;;5061656;28;20210;-84
2023/04/17 02:57:17;;;;;;;0.70;0.70;;;;;;;;;;5062007;28;20297;-84
2023/04/17 02:59:43;;;;;;;0.70;0.70;;;;;;;;;;5061953;28;20262;-84
2023/04/17 03:02:09;;;;;;;0.70;0.70;;;;;;;;;;5062317;28;20237;-83
2023/04/17 03:04:37;;;;;;;0.80;0.80;;;;;;;;;;5061845;28;20191;-84
2023/04/17 03:07:03;;;;;;;0.70;0.70;;;;;;;;;;5062665;28;20179;-84
2023/04/17 03:09:30;;;;;;;0.80;0.80;;;;;;;;;;5128010;22;20175;-85
2023/04/17 03:11:56;;;;;;;0.77;0.77;;;;;;;;;;5061037;28;20314;-83
2023/04/17 03:14:22;;;;;;;0.70;0.70;;;;;;;;;;5061924;28;20215;-84
2023/04/17 03:16:52;;;;;;;0.70;0.70;;;;;;;;;;5062037;28;20186;-83
2023/04/17 03:19:18;;;;;;;0.63;0.63;;;;;;;;;;5062952;28;20187;-83
2023/04/17 03:21:44;;;;;;;0.80;0.80;;;;;;;;;;5063054;28;20232;-81
2023/04/17 03:24:11;;;;;;;0.73;0.73;;;;;;;;;;5064882;28;20199;-81
2023/04/17 03:26:37;;;;;;;0.60;0.60;;;;;;;;;;5074374;28;20203;-82
2023/04/17 03:29:03;;;;;;;0.60;0.60;;;;;;;;;;5073713;28;20190;-82
2023/04/17 03:31:29;;;;;;;0.63;0.63;;;;;;;;;;5073716;28;20264;-82
2023/04/17 03:33:55;;;;;;;0.70;0.70;;;;;;;;;;5068543;28;20198;-83
2023/04/17 03:36:21;;;;;;;0.73;0.73;;;;;;;;;;5069233;28;20205;-82
2023/04/17 03:38:47;;;;;;;0.60;0.60;;;;;;;;;;5066398;28;20232;-82
2023/04/17 03:41:13;;;;;;;0.70;0.70;;;;;;;;;;5065365;28;20187;-83
2023/04/17 03:43:40;;;;;;;0.63;0.63;;;;;;;;;;5064456;28;20202;-83
2023/04/17 03:46:05;;;;;;;0.70;0.70;;;;;;;;;;5064688;28;20175;-83
2023/04/17 03:48:31;;;;;;;0.73;0.73;;;;;;;;;;5064892;28;20182;-81
2023/04/17 03:50:57;;;;;;;0.73;0.73;;;;;;;;;;5058680;28;20218;-84
2023/04/17 03:53:23;;;;;;;0.70;0.70;;;;;;;;;;5060178;28;20283;-83
2023/04/17 03:55:49;;;;;;;0.60;0.60;;;;;;;;;;5057491;28;20205;-82
2023/04/17 03:58:15;;;;;;;0.60;0.60;;;;;;;;;;5056066;28;20171;-83
2023/04/17 04:00:42;;;;;;;0.70;0.70;;;;;;;;;;5055758;28;20703;-82
2023/04/17 04:03:08;;;;;;;0.70;0.70;;;;;;;;;;5056142;28;20218;-82
2023/04/17 04:05:34;;;;;;;0.67;0.67;;;;;;;;;;5056393;28;20175;-82
2023/04/17 04:08:00;;;;;;;0.60;0.60;;;;;;;;;;5056972;28;20179;-82
2023/04/17 04:10:26;;;;;;;0.80;0.80;;;;;;;;;;5058398;28;20215;-82
2023/04/17 04:12:52;;;;;;;0.60;0.60;;;;;;;;;;5056769;28;20175;-83
2023/04/17 04:15:18;;;;;;;0.67;0.67;;;;;;;;;;5057600;28;20175;-84
2023/04/17 04:17:44;;;;;;;0.70;0.70;;;;;;;;;;5057213;28;20199;-82
2023/04/17 04:20:10;;;;;;;0.70;0.70;;;;;;;;;;5056888;28;20179;-81
2023/04/17 04:22:36;;;;;;;0.70;0.70;;;;;;;;;;5055570;28;20195;-81
2023/04/17 04:25:02;;;;;;;0.67;0.67;;;;;;;;;;5056375;28;20202;-80
2023/04/17 04:27:31;;;;;;;0.60;0.60;;;;;;;;;;5055858;28;20258;-81
2023/04/17 04:29:58;;;;;;;0.80;0.80;;;;;;;;;;5056306;28;20182;-80
2023/04/17 04:32:24;;;;;;;0.70;0.70;;;;;;;;;;5073644;28;20182;-80
2023/04/17 04:34:50;;;;;;;0.80;0.80;;;;;;;;;;5077114;28;20246;-80
2023/04/17 04:37:20;;;;;;;0.90;0.90;;;;;;;;;;5076918;28;20209;-81
2023/04/17 04:39:52;;;;;;;0.80;0.80;;;;;;;;;;5077531;28;20175;-80
2023/04/17 04:42:21;;;;;;;0.70;0.70;;;;;;;;;;5070152;28;20182;-82
2023/04/17 04:44:47;;;;;;;0.60;0.60;;;;;;;;;;5057646;28;20198;-81
2023/04/17 04:47:13;;;;;;;0.60;0.60;;;;;;;;;;5057145;28;20183;-82
2023/04/17 04:49:39;;;;;;;0.60;0.60;;;;;;;;;;5056320;28;20178;-82
2023/04/17 04:52:05;;;;;;;0.70;0.70;;;;;;;;;;5057255;28;20183;-82
2023/04/17 04:54:31;;;;;;;0.77;0.77;;;;;;;;;;5056751;28;20187;-82
2023/04/17 04:56:57;;;;;;;0.70;0.70;;;;;;;;;;5056826;28;20178;-81
2023/04/17 04:59:23;;;;;;;0.63;0.63;;;;;;;;;;5057269;28;20679;-81
2023/04/17 05:01:49;;;;;;;0.60;0.60;;;;;;;;;;5056656;28;20586;-80
2023/04/17 05:04:15;;;;;;;0.60;0.60;;;;;;;;;;5056286;28;20708;-80
2023/04/17 05:06:41;;;;;;;0.63;0.63;;;;;;;;;;5055369;28;20167;-81
2023/04/17 05:09:07;;;;;;;0.63;0.63;;;;;;;;;;5055129;28;20175;-81
2023/04/17 05:11:33;;;;;;;0.70;0.70;;;;;;;;;;5054871;28;20218;-81
2023/04/17 05:13:59;;;;;;;0.70;0.70;;;;;;;;;;5054662;28;20737;-80
2023/04/17 05:16:25;;;;;;;0.60;0.60;;;;;;;;;;5055308;28;20224;-81
2023/04/17 05:18:51;;;;;;;0.80;0.80;;;;;;;;;;5055801;28;20175;-81
2023/04/17 05:21:17;;;;;;;0.60;0.60;;;;;;;;;;5056554;28;20233;-80
2023/04/17 05:23:43;;;;;;;0.60;0.60;;;;;;;;;;5055186;28;20282;-81
2023/04/17 05:26:09;;;;;;;0.70;0.70;;;;;;;;;;5056487;28;20198;-81
2023/04/17 05:28:35;;;;;;;0.70;0.70;;;;;;;;;;5054245;28;20808;-82
2023/04/17 05:31:01;;;;;;;0.70;0.70;;;;;;;;;;5045448;28;20215;-82
2023/04/17 05:33:27;;;;;;;0.60;0.60;;;;;;;;;;5042839;28;20300;-82
2023/04/17 05:35:53;;;;;;;0.70;0.70;;;;;;;;;;5041011;28;20281;-82
2023/04/17 05:38:19;;;;;;;0.70;0.70;;;;;;;;;;5048196;28;20176;-82
2023/04/17 05:40:45;;;;;;;0.60;0.60;;;;;;;;;;5056687;28;20672;-82
2023/04/17 05:43:12;;;;;;;0.80;0.80;;;;;;;;;;5056912;28;20215;-84
2023/04/17 05:45:40;;;;;;;0.63;0.63;;;;;;;;;;5058178;28;20186;-82
2023/04/17 05:48:06;;;;;;;0.80;0.80;;;;;;;;;;5058840;28;20171;-80
2023/04/17 05:50:32;;;;;;;0.70;0.70;;;;;;;;;;5058090;28;20207;-82
2023/04/17 05:52:58;;;;;;;0.67;0.67;;;;;;;;;;5056935;28;20199;-82
2023/04/17 05:55:24;;;;;;;0.60;0.60;;;;;;;;;;5073361;28;20178;-79
2023/04/17 05:57:50;;;;;;;0.70;0.70;;;;;;;;;;5076878;28;20198;-80
2023/04/17 06:00:17;;;;;;;0.70;0.70;;;;;;;;;;5066360;28;20187;-81
2023/04/17 06:02:43;;;;;;;0.70;0.70;;;;;;;;;;5059183;28;20186;-81
2023/04/17 06:05:09;;;;;;;0.60;0.60;;;;;;;;;;5060087;28;20198;-81
2023/04/17 06:07:39;;;;;;;0.70;0.70;;;;;;;;;;5060474;28;20258;-82
2023/04/17 06:10:08;;;;;;;0.77;0.77;;;;;;;;;;5061916;28;20211;-80
2023/04/17 06:12:35;;;;;;;0.70;0.70;;;;;;;;;;5060657;28;20229;-82
2023/04/17 06:15:01;;;;;;;0.70;0.70;;;;;;;;;;5060137;28;20198;-81
2023/04/17 06:17:27;;;;;;;0.70;0.70;;;;;;;;;;5060511;28;20191;-83
2023/04/17 06:19:53;;;;;;;0.70;0.70;;;;;;;;;;5059337;28;20238;-82
2023/04/17 06:22:19;;;;;;;0.70;0.70;;;;;;;;;;5059575;28;20598;-82
2023/04/17 06:24:45;;;;;;;0.70;0.70;;;;;;;;;;5059625;28;20191;-82
2023/04/17 06:27:11;;;;;;;0.60;0.60;;;;;;;;;;5059210;28;20182;-81
2023/04/17 06:29:37;;;;;;;0.70;0.70;;;;;;;;;;5058075;28;20268;-82
2023/04/17 06:32:03;;;;;;;0.70;0.70;;;;;;;;;;5057158;28;20265;-83
2023/04/17 06:34:30;;;;;;;0.70;0.70;;;;;;;;;;5056713;28;20705;-84
2023/04/17 06:36:56;;;;;;;0.70;0.70;;;;;;;;;;5057130;28;20179;-82
2023/04/17 06:39:22;;;;;;;0.70;0.70;;;;;;;;;;5057810;28;20175;-82
2023/04/17 06:41:49;;;;;;;0.70;0.70;;;;;;;;;;5056809;28;20257;-82
2023/04/17 06:44:15;;;;;;;0.60;0.60;;;;;;;;;;5057819;28;20197;-82
2023/04/17 06:46:41;;;;;;;0.70;0.70;;;;;;;;;;5055766;28;20174;-82
2023/04/17 06:49:07;;;;;;;0.80;0.80;;;;;;;;;;5055987;28;20183;-83
2023/04/17 06:51:33;;;;;;;0.70;0.70;;;;;;;;;;5056672;28;20211;-83
2023/04/17 06:53:59;;;;;;;0.70;0.70;;;;;;;;;;5056712;28;20198;-83
2023/04/17 06:56:25;;;;;;;0.70;0.70;;;;;;;;;;5061075;28;20172;-83
2023/04/17 06:58:52;;;;;;;0.80;0.80;;;;;;;;;;5059631;28;20258;-82
2023/04/17 07:01:19;;;;;;;0.70;0.70;;;;;;;;;;5057650;28;20210;-83
2023/04/17 07:03:45;;;;;;;0.70;0.70;;;;;;;;;;5057536;28;20225;-83
2023/04/17 07:06:12;;;;;;;0.70;0.70;;;;;;;;;;5058388;28;20232;-83
2023/04/17 07:08:38;;;;;;;0.70;0.70;;;;;;;;;;5056231;28;20171;-83
2023/04/17 07:11:07;;;;;;;0.60;0.60;;;;;;;;;;5057239;28;20219;-82
2023/04/17 07:13:33;;;;;;;0.70;0.70;;;;;;;;;;5057085;28;20203;-82
2023/04/17 07:16:00;;;;;;;0.70;0.70;;;;;;;;;;5057630;28;20278;-82
2023/04/17 07:18:28;;;;;;;0.70;0.70;;;;;;;;;;5053507;28;20202;-81
2023/04/17 07:20:55;;;;;;;0.70;0.70;;;;;;;;;;5054757;28;20296;-83
2023/04/17 07:23:21;;;;;;;0.80;0.80;;;;;;;;;;5056079;28;20202;-82
2023/04/17 07:25:47;;;;;;;0.70;0.70;;;;;;;;;;5055171;28;20183;-81
2023/04/17 07:28:13;;;;;;;0.60;0.60;;;;;;;;;;5059787;28;20198;-82
2023/04/17 07:30:41;;;;;;;0.70;0.70;;;;;;;;;;5058806;28;20207;-81
2023/04/17 07:33:07;;;;;;;0.70;0.70;;;;;;;;;;5059224;28;20171;-81
2023/04/17 07:35:33;;;;;;;0.70;0.70;;;;;;;;;;5059333;28;20332;-81
2023/04/17 07:38:02;;;;;;;0.60;0.60;;;;;;;;;;5060685;28;20179;-82
2023/04/17 07:40:28;;;;;;;0.80;0.80;;;;;;;;;;5061637;28;20186;-82
2023/04/17 07:42:55;;;;;;;0.60;0.60;;;;;;;;;;5061052;28;20240;-82
2023/04/17 07:45:21;;;;;;;0.70;0.70;;;;;;;;;;5061057;28;20172;-83
2023/04/17 07:47:47;;;;;;;0.70;0.70;;;;;;;;;;5060598;28;20179;-83
2023/04/17 07:50:13;;;;;;;0.60;0.60;;;;;;;;;;5060738;28;20556;-82
2023/04/17 07:52:39;;;;;;;0.80;0.80;;;;;;;;;;5058825;28;20178;-83
2023/04/17 07:55:06;;;;;;;0.70;0.70;;;;;;;;;;5060619;28;20199;-83
2023/04/17 07:57:32;;;;;;;0.70;0.70;;;;;;;;;;5062079;28;20708;-83
2023/04/17 07:59:58;;;;;;;0.60;0.60;;;;;;;;;;5060826;28;20199;-83
2023/04/17 08:02:24;;;;;;;0.67;0.67;;;;;;;;;;5058477;28;20197;-83
2023/04/17 08:04:50;;;;;;;0.70;0.70;;;;;;;;;;5060000;28;20199;-83
2023/04/17 08:07:17;;;;;;;0.67;0.67;;;;;;;;;;5060436;28;20718;-83
2023/04/17 08:09:43;;;;;;;0.70;0.70;;;;;;;;;;5059058;28;20201;-83
2023/04/17 08:12:09;;;;;;;0.50;0.50;;;;;;;;;;5058947;28;20592;-83
2023/04/17 08:14:35;;;;;;;0.60;0.60;;;;;;;;;;5053379;28;20198;-82
2023/04/17 08:17:01;;;;;;;0.50;0.50;;;;;;;;;;5046975;28;20640;-83
2023/04/17 08:19:28;;;;;;;0.70;0.70;;;;;;;;;;5042633;28;20175;-82
2023/04/17 08:22:00;;;;;;;0.60;0.60;;;;;;;;;;5049095;28;20262;-83
2023/04/17 08:24:26;;;;;;;0.70;0.70;;;;;;;;;;5047851;28;20219;-82
2023/04/17 08:26:52;;;;;;;0.70;0.70;;;;;;;;;;5041214;28;20184;-82
2023/04/17 08:29:18;;;;;;;0.60;0.60;;;;;;;;;;5053327;28;20176;-83
2023/04/17 08:31:44;;;;;;;0.70;0.70;;;;;;;;;;5049508;28;20670;-83
2023/04/17 08:34:10;;;;;;;0.70;0.70;;;;;;;;;;5044812;28;20191;-82
2023/04/17 08:36:36;;;;;;;0.60;0.60;;;;;;;;;;5057662;28;20261;-83
2023/04/17 08:39:03;;;;;;;0.70;0.70;;;;;;;;;;5039430;28;20275;-82
2023/04/17 08:41:34;;;;;;;0.70;0.70;;;;;;;;;;5051543;28;20235;-83
2023/04/17 08:44:01;;;;;;;0.67;0.67;;;;;;;;;;5041627;28;20285;-83
2023/04/17 08:46:28;;;;;;;0.60;0.60;;;;;;;;;;5049262;28;20668;-82
2023/04/17 08:48:54;;;;;;;0.60;0.60;;;;;;;;;;5040553;28;20777;-82
2023/04/17 08:51:25;;;;;;;0.57;0.57;;;;;;;;;;5050793;28;20215;-82
2023/04/17 08:53:51;;;;;;;0.50;0.50;;;;;;;;;;5041555;28;20252;-82
2023/04/17 08:56:17;;;;;;;0.70;0.70;;;;;;;;;;5044712;28;20179;-83
2023/04/17 08:58:43;;;;;;;0.60;0.60;;;;;;;;;;5049236;28;20178;-82
2023/04/17 09:01:16;;;;;;;0.60;0.60;;;;;;;;;;5039684;28;20221;-82
2023/04/17 09:03:43;;;;;;;0.53;0.53;;;;;;;;;;5049291;28;20222;-82
2023/04/17 09:06:12;;;;;;;0.67;0.67;;;;;;;;;;5045880;28;20171;-83
2023/04/17 09:08:39;;;;;;;0.60;0.60;;;;;;;;;;5044555;28;20175;-82
2023/04/17 09:11:15;;;;;;;0.80;0.80;;;;;;;;;;5057044;28;20250;-82
2023/04/17 09:13:41;;;;;;;0.60;0.60;;;;;;;;;;5064754;28;20201;-82
2023/04/17 09:16:08;;;;;;;0.53;0.53;;;;;;;;;;5043426;28;20188;-82
2023/04/17 09:18:34;;;;;;;0.60;0.60;;;;;;;;;;5049303;28;20171;-83
2023/04/17 09:21:01;;;;;;;0.60;0.60;;;;;;;;;;5037990;28;20190;-81
2023/04/17 09:23:28;;;;;;;0.50;0.50;;;;;;;;;;5034960;28;20196;-82
2023/04/17 09:26:08;;;;;;;0.60;0.60;;;;;;;;;;5041433;28;20194;-82
2023/04/17 09:28:34;;;;;;;0.60;0.60;;;;;;;;;;5041073;28;20183;-82
2023/04/17 09:31:04;;;;;;;0.50;0.50;;;;;;;;;;5057970;28;20230;-82
2023/04/17 09:33:30;;;;;;;0.60;0.60;;;;;;;;;;5064204;28;20206;-83
2023/04/17 09:36:16;;;;;;;0.60;0.60;;;;;;;;;;5049538;28;20338;-82
2023/04/17 09:38:43;;;;;;;0.53;0.53;;;;;;;;;;5051287;28;20163;-83
2023/04/17 09:41:26;;;;;;;0.50;0.50;;;;;;;;;;5042836;28;20182;-83
2023/04/17 09:43:56;;;;;;;0.50;0.50;;;;;;;;;;5054027;28;20199;-82
2023/04/17 09:46:47;;;;;;;0.50;0.50;;;;;;;;;;5043401;28;20176;-82
2023/04/17 09:49:18;;;;;;;0.60;0.60;;;;;;;;;;5058062;28;20263;-82
2023/04/17 09:51:45;;;;;;;0.43;0.43;;;;;;;;;;5047527;28;20225;-84
2023/04/17 09:54:13;;;;;;;0.37;0.37;;;;;;;;;;5054224;28;20223;-87
2023/04/17 09:56:40;;;;;;;0.40;0.40;;;;;;;;;;5063525;28;20183;-83
2023/04/17 09:59:07;;;;;;;0.40;0.40;;;;;;;;;;5060289;28;20182;-83
2023/04/17 10:01:35;;;;;;;0.50;0.50;;;;;;;;;;5054926;28;20262;-84
2023/04/17 10:04:02;;;;;;;0.50;0.50;;;;;;;;;;5056194;28;20200;-82
2023/04/17 10:06:28;;;;;;;0.43;0.43;;;;;;;;;;5055144;28;20745;-82
2023/04/17 10:08:54;;;;;;;0.50;0.50;;;;;;;;;;5047427;28;20188;-82
2023/04/17 10:11:24;;;;;;;0.60;0.60;;;;;;;;;;5057775;28;20845;-84
2023/04/17 10:14:10;;;;;;;0.60;0.60;;;;;;;;;;5055507;28;20191;-83
2023/04/17 10:16:37;;;;;;;0.50;0.50;;;;;;;;;;5055321;28;20171;-88
2023/04/17 10:19:22;;;;;;;0.53;0.53;;;;;;;;;;5050012;28;20176;-83
2023/04/17 10:22:10;;;;;;;0.60;0.60;;;;;;;;;;5063372;28;20217;-83
2023/04/17 10:24:36;;;;;;;0.50;0.50;;;;;;;;;;5056434;28;20195;-84
2023/04/17 10:27:22;;;;;;;0.70;0.70;;;;;;;;;;5062703;28;20309;-84
2023/04/17 10:30:09;;;;;;;0.60;0.60;;;;;;;;;;5057074;28;20167;-81
2023/04/17 10:32:35;;;;;;;0.57;0.57;;;;;;;;;;5057811;28;20195;-82
2023/04/17 10:35:03;;;;;;;0.50;0.50;;;;;;;;;;5057972;28;20685;-82
2023/04/17 10:37:50;;;;;;;0.60;0.60;;;;;;;;;;5055721;28;20515;-83
2023/04/17 10:40:20;;;;;;;0.70;0.70;;;;;;;;;;5059667;28;20186;-82
2023/04/17 10:43:02;;;;;;;0.60;0.60;;;;;;;;;;5061227;28;20182;-83
2023/04/17 10:45:47;;;;;;;0.70;0.70;;;;;;;;;;5060855;28;20182;-82
2023/04/17 10:48:41;;;;;;;0.40;0.40;;;;;;;;;;5060988;28;20178;-83
2023/04/17 10:51:22;;;;;;;0.50;0.50;;;;;;;;;;5057474;28;20276;-82
2023/04/17 10:54:09;;;;;;;0.60;0.60;;;;;;;;;;5061913;28;20274;-83
2023/04/17 10:56:44;;;;;;;0.60;0.60;;;;;;;;;;5050587;28;20233;-82
2023/04/17 10:59:18;;;;;;;0.60;0.60;;;;;;;;;;5046101;28;20186;-82
2023/04/17 11:01:47;;;;;;;0.60;0.60;;;;;;;;;;5060131;28;20175;-83
2023/04/17 11:04:27;;;;;;;0.63;0.63;;;;;;;;;;5058973;28;20222;-84
2023/04/17 11:06:54;;;;;;;0.60;0.60;;;;;;;;;;5061427;28;20171;-83
2023/04/17 11:09:21;;;;;;;0.60;0.60;;;;;;;;;;5059006;28;20175;-82
2023/04/17 11:11:47;;;;;;;0.50;0.50;;;;;;;;;;5058872;28;20298;-82
2023/04/17 11:14:14;;;;;;;0.60;0.60;;;;;;;;;;5054789;28;20191;-81
2023/04/17 11:16:41;;;;;;;0.50;0.50;;;;;;;;;;5055825;28;20171;-82
2023/04/17 11:19:08;;;;;;;0.50;0.50;;;;;;;;;;5058295;28;20186;-82
2023/04/17 11:21:38;;;;;;;0.50;0.50;;;;;;;;;;5059785;28;20572;-83
2023/04/17 11:24:04;;;;;;;0.60;0.60;;;;;;;;;;5058892;28;20202;-83
2023/04/17 11:26:30;;;;;;;0.53;0.53;;;;;;;;;;5061276;28;20175;-82
2023/04/17 11:28:58;;;;;;;0.43;0.43;;;;;;;;;;5058378;28;20309;-83
2023/04/17 11:31:25;;;;;;;0.60;0.60;;;;;;;;;;5061908;28;20207;-83
2023/04/17 11:33:51;;;;;;;0.57;0.57;;;;;;;;;;5059672;28;20202;-80
2023/04/17 11:36:17;;;;;;;0.57;0.57;;;;;;;;;;5061108;28;20594;-81
2023/04/17 11:38:49;;;;;;;0.60;0.60;;;;;;;;;;5065053;28;20176;-81
2023/04/17 11:41:15;;;;;;;0.50;0.50;;;;;;;;;;5068084;28;20163;-84
2023/04/17 11:43:42;;;;;;;0.50;0.50;;;;;;;;;;5069928;28;20568;-82
2023/04/17 11:46:09;;;;;;;0.60;0.60;;;;;;;;;;5070788;28;20179;-82
2023/04/17 11:48:35;;;;;;;0.60;0.60;;;;;;;;;;5072288;28;20178;-82
2023/04/17 11:51:05;;;;;;;0.50;0.50;;;;;;;;;;5067947;28;20241;-81
2023/04/17 11:53:34;;;;;;;0.60;0.60;;;;;;;;;;5066098;28;20278;-82
2023/04/17 11:56:15;;;;;;;0.50;0.50;;;;;;;;;;5061624;28;20175;-82
2023/04/17 11:58:51;;;;;;;0.50;0.50;;;;;;;;;;5059513;28;20252;-83
2023/04/17 12:01:18;;;;;;;0.47;0.47;;;;;;;;;;5060876;28;20191;-82
2023/04/17 12:03:46;;;;;;;0.50;0.50;;;;;;;;;;5056785;28;20199;-82
2023/04/17 12:06:12;;;;;;;0.67;0.67;;;;;;;;;;5058315;28;20190;-82
2023/04/17 12:08:46;;;;;;;0.40;0.40;;;;;;;;;;5058353;28;20175;-81
2023/04/17 12:11:31;;;;;;;0.50;0.50;;;;;;;;;;5055689;28;20701;-81
2023/04/17 12:13:57;;;;;;;0.40;0.40;;;;;;;;;;5056785;28;20191;-81
2023/04/17 12:16:24;;;;;;;0.40;0.40;;;;;;;;;;5052002;28;20175;-81
2023/04/17 12:18:50;;;;;;;0.40;0.40;;;;;;;;;;5054042;28;20646;-81
2023/04/17 12:21:19;;;;;;;0.50;0.50;;;;;;;;;;5054678;28;20284;-80
2023/04/17 12:23:45;;;;;;;0.50;0.50;;;;;;;;;;5053483;28;20244;-80
2023/04/17 12:26:12;;;;;;;0.40;0.40;;;;;;;;;;5055314;28;20171;-81
2023/04/17 12:28:38;;;;;;;0.50;0.50;;;;;;;;;;5059134;28;20183;-82
2023/04/17 12:31:04;;;;;;;0.47;0.47;;;;;;;;;;5076730;28;20214;-81
2023/04/17 12:33:30;;;;;;;0.50;0.50;;;;;;;;;;5064612;28;20199;-82
2023/04/17 12:35:56;;;;;;;0.50;0.50;;;;;;;;;;5076004;28;20179;-80
2023/04/17 12:38:22;;;;;;;0.50;0.50;;;;;;;;;;5077721;28;20163;-83
2023/04/17 12:40:50;;;;;;;0.50;0.50;;;;;;;;;;5076946;28;20189;-82
2023/04/17 12:43:17;;;;;;;0.40;0.40;;;;;;;;;;5058147;28;20283;-81
2023/04/17 12:45:46;;;;;;;0.70;0.70;;;;;;;;;;5060161;28;20175;-83
2023/04/17 12:48:13;;;;;;;0.50;0.50;;;;;;;;;;5060017;28;20168;-81
2023/04/17 12:50:42;;;;;;;0.50;0.50;;;;;;;;;;5065165;28;20276;-83
2023/04/17 12:53:09;;;;;;;0.50;0.50;;;;;;;;;;5063047;28;20205;-83
2023/04/17 12:55:40;;;;;;;0.67;0.67;;;;;;;;;;5062653;28;20234;-85
2023/04/17 12:58:06;;;;;;;0.60;0.60;;;;;;;;;;5056485;28;20650;-85
2023/04/17 13:00:32;;;;;;;0.60;0.60;;;;;;;;;;5057705;28;20171;-85
2023/04/17 13:02:58;;;;;;;0.70;0.70;;;;;;;;;;5058761;28;20175;-84
2023/04/17 13:05:24;;;;;;;0.50;0.50;;;;;;;;;;5059427;28;20186;-83
2023/04/17 13:07:50;;;;;;;0.60;0.60;;;;;;;;;;5047880;28;20171;-85
2023/04/17 13:10:16;;;;;;;0.60;0.60;;;;;;;;;;5059686;28;20245;-83
2023/04/17 13:12:42;;;;;;;0.60;0.60;;;;;;;;;;5053886;28;20620;-83
2023/04/17 13:15:08;;;;;;;0.60;0.60;;;;;;;;;;5064669;28;20218;-84
2023/04/17 13:17:35;;;;;;;0.63;0.63;;;;;;;;;;5065642;28;20175;-85
2023/04/17 13:20:01;;;;;;;0.50;0.50;;;;;;;;;;5069104;28;20246;-85
2023/04/17 13:22:27;;;;;;;0.53;0.53;;;;;;;;;;5061826;28;20582;-84
2023/04/17 13:24:53;;;;;;;0.50;0.50;;;;;;;;;;5062611;28;20199;-85
2023/04/17 13:27:19;;;;;;;0.50;0.50;;;;;;;;;;5057466;28;20233;-84
2023/04/17 13:29:45;;;;;;;0.50;0.50;;;;;;;;;;5061766;28;20178;-84
2023/04/17 13:32:11;;;;;;;0.57;0.57;;;;;;;;;;5060368;28;20590;-84
2023/04/17 13:34:37;;;;;;;0.60;0.60;;;;;;;;;;5054390;28;20203;-83
2023/04/17 13:37:03;;;;;;;0.63;0.63;;;;;;;;;;5065146;28;20677;-83
2023/04/17 13:39:29;;;;;;;0.50;0.50;;;;;;;;;;5057529;28;20175;-84
2023/04/17 13:41:56;;;;;;;0.47;0.47;;;;;;;;;;5057985;28;20190;-83
2023/04/17 13:44:23;;;;;;;0.40;0.40;;;;;;;;;;5068460;28;20206;-85
2023/04/17 13:46:50;;;;;;;0.50;0.50;;;;;;;;;;5049833;28;20194;-84
2023/04/17 13:49:16;;;;;;;0.50;0.50;;;;;;;;;;5070937;28;20179;-85
2023/04/17 13:51:42;;;;;;;0.50;0.50;;;;;;;;;;5069658;28;20222;-83
2023/04/17 13:54:09;;;;;;;0.50;0.50;;;;;;;;;;5069719;28;20634;-82
2023/04/17 13:56:35;;;;;;;0.40;0.40;;;;;;;;;;5069159;28;20185;-83
2023/04/17 13:59:02;;;;;;;0.47;0.47;;;;;;;;;;5060373;28;20184;-83
2023/04/17 14:01:28;;;;;;;0.40;0.40;;;;;;;;;;5061047;28;20188;-84
2023/04/17 14:03:54;;;;;;;0.40;0.40;;;;;;;;;;5043315;28;20253;-84
2023/04/17 14:06:20;;;;;;;0.40;0.40;;;;;;;;;;5045465;28;20240;-85
2023/04/17 14:08:47;;;;;;;0.50;0.50;;;;;;;;;;5052517;28;20179;-84
2023/04/17 14:11:13;;;;;;;0.60;0.60;;;;;;;;;;5045786;28;20228;-85
2023/04/17 14:13:39;;;;;;;0.40;0.40;;;;;;;;;;5056669;28;20263;-83
2023/04/17 14:16:06;;;;;;;0.50;0.50;;;;;;;;;;5061790;28;20175;-84
2023/04/17 14:18:33;;;;;;;0.53;0.53;;;;;;;;;;5063633;28;20175;-84
2023/04/17 14:20:59;;;;;;;0.50;0.50;;;;;;;;;;5066203;28;20174;-86
2023/04/17 14:23:25;;;;;;;0.50;0.50;;;;;;;;;;5061934;28;20195;-81
2023/04/17 14:25:51;;;;;;;0.50;0.50;;;;;;;;;;5061243;28;20217;-85
2023/04/17 14:28:17;;;;;;;0.50;0.50;;;;;;;;;;5061660;28;20182;-80
2023/04/17 14:30:44;;;;;;;0.50;0.50;;;;;;;;;;5060992;28;20237;-82
2023/04/17 14:33:10;;;;;;;0.50;0.50;;;;;;;;;;5058721;28;20259;-83
2023/04/17 14:35:36;;;;;;;0.50;0.50;;;;;;;;;;5060368;28;20652;-83
2023/04/17 14:38:03;;;;;;;0.50;0.50;;;;;;;;;;5060997;28;20241;-83
2023/04/17 14:40:30;;;;;;;0.60;0.60;;;;;;;;;;5062159;28;20175;-83
2023/04/17 14:42:56;;;;;;;0.50;0.50;;;;;;;;;;5061168;28;20260;-84
2023/04/17 14:45:22;;;;;;;0.50;0.50;;;;;;;;;;5062838;28;20191;-82
2023/04/17 14:47:48;;;;;;;0.60;0.60;;;;;;;;;;5061542;28;20175;-83